createdAt,value
2018-11-10T00:01:43.339Z,73.60
2018-11-10T00:04:19.421Z,78.07
2018-11-10T00:06:55.479Z,106.90
2018-11-10T00:09:31.341Z,107.40
2018-11-10T00:12:07.255Z,72.47
2018-11-10T00:14:42.991Z,77.90
2018-11-10T00:17:18.908Z,105.83
2018-11-10T00:19:54.632Z,142.03
2018-11-10T00:22:30.571Z,131.30
2018-11-10T00:25:08.341Z,110.67
2018-11-10T00:27:45.252Z,66.93
2018-11-10T00:30:21.028Z,63.57
2018-11-10T00:32:56.929Z,62.83
2018-11-10T00:35:32.841Z,72.83
2018-11-10T00:38:08.626Z,84.67
2018-11-10T00:40:44.509Z,84.33
2018-11-10T00:43:20.480Z,80.90
2018-11-10T00:45:56.217Z,77.63
2018-11-10T00:48:32.093Z,94.53
2018-11-10T00:51:07.996Z,86.03
2018-11-10T00:53:43.808Z,80.97
2018-11-10T00:56:19.712Z,84.73
2018-11-10T00:58:55.711Z,79.83
2018-11-10T01:01:31.465Z,84.80
2018-11-10T01:04:07.341Z,70.50
2018-11-10T01:06:43.184Z,91.63
2018-11-10T01:09:19.112Z,69.90
2018-11-10T01:11:54.985Z,67.83
2018-11-10T01:14:30.847Z,66.63
2018-11-10T01:17:06.872Z,69.70
2018-11-10T01:19:42.768Z,70.47
2018-11-10T01:22:18.545Z,122.23
2018-11-10T01:24:54.506Z,89.30
2018-11-10T01:27:30.308Z,89.43
2018-11-10T01:30:08.840Z,90.73
2018-11-10T01:32:45.375Z,108.27
2018-11-10T01:35:21.440Z,77.20
2018-11-10T01:37:57.460Z,62.53
2018-11-10T01:40:36.047Z,101.27
2018-11-10T01:43:14.295Z,79.27
2018-11-10T01:45:49.981Z,72.70
2018-11-10T01:48:25.781Z,67.50
2018-11-10T01:51:01.646Z,67.43
2018-11-10T01:53:37.540Z,62.13
2018-11-10T01:56:14.311Z,60.40
2018-11-10T01:58:50.061Z,65.40
2018-11-10T02:01:25.996Z,59.97
2018-11-10T02:04:01.945Z,56.10
2018-11-10T02:06:37.756Z,68.10
2018-11-10T02:09:13.663Z,61.73
2018-11-10T02:11:49.548Z,67.33
2018-11-10T02:14:25.409Z,64.97
2018-11-10T02:17:01.372Z,64.97
2018-11-10T02:19:37.696Z,64.73
2018-11-10T02:22:14.209Z,68.60
2018-11-10T02:24:50.212Z,61.10
2018-11-10T02:27:26.181Z,65.20
2018-11-10T02:30:02.091Z,79.37
2018-11-10T02:32:38.039Z,77.17
2018-11-10T02:35:13.785Z,67.30
2018-11-10T02:37:49.622Z,83.20
2018-11-10T02:40:25.397Z,80.30
2018-11-10T02:43:01.198Z,119.67
2018-11-10T02:45:37.100Z,96.37
2018-11-10T02:48:13.187Z,77.83
2018-11-10T02:50:48.853Z,80.47
2018-11-10T02:53:24.665Z,68.13
2018-11-10T02:56:00.552Z,69.97
2018-11-10T02:58:36.378Z,79.60
2018-11-10T03:01:12.120Z,75.77
2018-11-10T03:03:48.118Z,76.07
2018-11-10T03:06:23.960Z,81.30
2018-11-10T03:09:00.050Z,84.80
2018-11-10T03:11:35.799Z,89.77
2018-11-10T03:14:11.645Z,86.10
2018-11-10T03:16:47.540Z,83.80
2018-11-10T03:19:23.816Z,90.17
2018-11-10T03:21:59.602Z,92.93
2018-11-10T03:24:35.434Z,84.30
2018-11-10T03:27:11.105Z,105.60
2018-11-10T03:29:46.865Z,100.73
2018-11-10T03:32:22.801Z,80.43
2018-11-10T03:34:58.607Z,77.53
2018-11-10T03:37:34.402Z,94.90
2018-11-10T03:40:11.863Z,108.03
2018-11-10T03:42:47.674Z,161.03
2018-11-10T03:45:23.612Z,144.83
2018-11-10T03:47:59.385Z,137.27
2018-11-10T03:50:35.335Z,136.03
2018-11-10T03:53:11.142Z,103.30
2018-11-10T03:55:46.937Z,99.57
2018-11-10T03:58:22.736Z,89.20
2018-11-10T04:00:58.577Z,111.77
2018-11-10T04:03:34.396Z,110.93
2018-11-10T04:06:10.158Z,95.53
2018-11-10T04:08:45.945Z,107.37
2018-11-10T04:11:21.840Z,132.20
2018-11-10T04:13:57.824Z,96.13
2018-11-10T04:16:33.616Z,94.13
2018-11-10T04:19:09.496Z,93.40
2018-11-10T04:21:45.505Z,165.27
2018-11-10T04:24:21.294Z,275.90
2018-11-10T04:26:57.113Z,161.50
2018-11-10T04:29:32.960Z,235.00
2018-11-10T04:32:08.860Z,192.73
2018-11-10T04:34:44.845Z,119.07
2018-11-10T04:37:20.902Z,105.03
2018-11-10T04:39:56.853Z,201.30
2018-11-10T04:42:33.037Z,166.73
2018-11-10T04:45:10.204Z,166.17
2018-11-10T04:47:46.010Z,107.07
2018-11-10T04:50:21.895Z,91.60
2018-11-10T04:52:57.831Z,105.23
2018-11-10T04:55:33.722Z,157.07
2018-11-10T04:58:09.627Z,193.53
2018-11-10T05:00:45.510Z,230.00
2018-11-10T05:03:21.448Z,159.97
2018-11-10T05:05:57.372Z,219.70
2018-11-10T05:08:33.329Z,141.90
2018-11-10T05:11:09.062Z,195.03
2018-11-10T05:13:45.006Z,214.13
2018-11-10T05:16:20.817Z,265.37
2018-11-10T05:18:56.775Z,266.20
2018-11-10T05:21:32.567Z,309.60
2018-11-10T05:24:08.656Z,249.33
2018-11-10T05:26:44.539Z,308.47
2018-11-10T05:29:20.429Z,203.63
2018-11-10T05:31:56.178Z,160.63
2018-11-10T05:34:31.928Z,162.13
2018-11-10T05:37:07.718Z,307.07
2018-11-10T05:39:43.712Z,413.60
2018-11-10T05:42:19.532Z,225.57
2018-11-10T05:44:55.407Z,197.03
2018-11-10T05:47:31.253Z,215.47
2018-11-10T05:50:07.864Z,183.20
2018-11-10T05:52:43.624Z,197.13
2018-11-10T05:55:19.566Z,192.87
2018-11-10T05:57:55.490Z,298.20
2018-11-10T06:00:31.245Z,266.03
2018-11-10T06:03:06.919Z,373.10
2018-11-10T06:05:42.908Z,273.33
2018-11-10T06:08:18.685Z,205.20
2018-11-10T06:10:54.608Z,186.90
2018-11-10T06:13:30.482Z,196.03
2018-11-10T06:16:06.760Z,159.73
2018-11-10T06:18:42.682Z,182.67
2018-11-10T06:22:43.183Z,238.93
2018-11-10T06:25:19.130Z,297.00
2018-11-10T06:27:55.176Z,191.70
2018-11-10T06:30:31.404Z,126.43
2018-11-10T06:33:07.349Z,83.93
2018-11-10T06:35:43.113Z,166.10
2018-11-10T06:38:18.949Z,145.33
2018-11-10T06:40:54.880Z,135.77
2018-11-10T06:43:30.680Z,170.63
2018-11-10T06:46:06.761Z,108.87
2018-11-10T06:48:43.434Z,125.87
2018-11-10T06:51:19.212Z,109.80
2018-11-10T06:53:55.797Z,111.17
2018-11-10T06:56:32.248Z,139.70
2018-11-10T06:59:08.272Z,111.67
2018-11-10T07:01:44.297Z,103.60
2018-11-10T07:04:20.097Z,93.17
2018-11-10T07:06:56.043Z,81.73
2018-11-10T07:09:33.869Z,82.63
2018-11-10T07:12:10.104Z,75.67
2018-11-10T07:14:46.158Z,104.20
2018-11-10T07:17:22.061Z,217.87
2018-11-10T07:19:58.915Z,108.37
2018-11-10T07:22:34.810Z,87.77
2018-11-10T07:25:10.825Z,85.80
2018-11-10T07:27:46.863Z,92.60
2018-11-10T07:30:23.203Z,90.10
2018-11-10T07:32:59.156Z,87.00
2018-11-10T07:35:35.159Z,98.60
2018-11-10T07:38:12.245Z,148.57
2018-11-10T07:40:48.346Z,105.97
2018-11-10T07:43:24.092Z,122.60
2018-11-10T07:46:00.968Z,103.77
2018-11-10T07:48:38.173Z,113.47
2018-11-10T07:51:14.680Z,118.20
2018-11-10T07:53:52.296Z,114.63
2018-11-10T07:56:28.928Z,122.73
2018-11-10T07:59:05.792Z,106.57
2018-11-10T08:01:42.359Z,100.23
2018-11-10T08:04:18.134Z,85.53
2018-11-10T08:06:54.149Z,64.30
2018-11-10T08:09:29.975Z,68.87
2018-11-10T08:12:06.259Z,74.57
2018-11-10T08:14:42.001Z,70.63
2018-11-10T08:17:18.043Z,64.63
2018-11-10T08:19:53.979Z,70.20
2018-11-10T08:22:29.796Z,76.63
2018-11-10T08:25:07.327Z,64.60
2018-11-10T08:27:43.583Z,42.47
2018-11-10T08:30:19.448Z,42.60
2018-11-10T08:32:59.087Z,40.07
2018-11-10T08:35:35.045Z,42.27
2018-11-10T08:38:10.828Z,54.70
2018-11-10T08:40:46.713Z,46.00
2018-11-10T08:43:22.724Z,49.67
2018-11-10T08:45:58.505Z,58.40
2018-11-10T08:48:34.413Z,47.47
2018-11-10T08:51:22.109Z,51.87
2018-11-10T08:53:58.072Z,48.83
2018-11-10T08:56:34.326Z,82.17
2018-11-10T08:59:10.295Z,106.63
2018-11-10T09:01:46.433Z,41.93
2018-11-10T09:04:22.261Z,42.20
2018-11-10T09:06:58.030Z,47.20
2018-11-10T09:09:33.972Z,39.57
2018-11-10T09:12:10.560Z,34.70
2018-11-10T09:14:46.409Z,37.30
2018-11-10T09:17:22.233Z,52.77
2018-11-10T09:19:57.994Z,43.10
2018-11-10T09:22:33.854Z,48.33
2018-11-10T09:25:11.755Z,48.07
2018-11-10T09:27:47.487Z,42.03
2018-11-10T09:30:23.312Z,37.83
2018-11-10T09:32:59.218Z,43.07
2018-11-10T09:35:35.227Z,58.37
2018-11-10T09:38:11.043Z,80.70
2018-11-10T09:40:46.890Z,48.40
2018-11-10T09:43:22.600Z,71.73
2018-11-10T09:45:58.518Z,54.33
2018-11-10T09:48:34.329Z,63.73
2018-11-10T09:51:10.198Z,47.53
2018-11-10T09:53:46.227Z,45.40
2018-11-10T09:56:22.144Z,38.93
2018-11-10T09:58:58.018Z,40.50
2018-11-10T10:01:34.111Z,40.27
2018-11-10T10:04:10.053Z,42.87
2018-11-10T10:06:45.858Z,47.33
2018-11-10T10:09:21.778Z,45.60
2018-11-10T10:11:57.704Z,42.33
2018-11-10T10:14:33.525Z,42.63
2018-11-10T10:17:09.721Z,31.97
2018-11-10T10:19:45.530Z,27.33
2018-11-10T10:22:21.413Z,24.27
2018-11-10T10:24:57.366Z,28.73
2018-11-10T10:27:33.295Z,34.30
2018-11-10T10:30:13.983Z,31.17
2018-11-10T10:32:49.936Z,42.70
2018-11-10T10:35:25.854Z,30.30
2018-11-10T10:38:01.861Z,41.83
2018-11-10T10:40:37.699Z,38.17
2018-11-10T10:43:13.575Z,31.73
2018-11-10T10:45:49.324Z,30.67
2018-11-10T10:48:25.137Z,30.40
2018-11-10T10:51:00.969Z,32.27
2018-11-10T10:53:36.883Z,42.33
2018-11-10T10:56:12.795Z,30.57
2018-11-10T10:58:48.699Z,32.00
2018-11-10T11:01:29.479Z,24.97
2018-11-10T11:04:10.639Z,26.10
2018-11-10T11:06:46.527Z,32.37
2018-11-10T11:09:22.505Z,31.37
2018-11-10T11:11:58.442Z,30.90
2018-11-10T11:14:34.355Z,26.37
2018-11-10T11:17:10.193Z,28.23
2018-11-10T11:19:46.126Z,28.83
2018-11-10T11:22:22.013Z,24.30
2018-11-10T11:24:57.908Z,27.80
2018-11-10T11:27:33.629Z,42.20
2018-11-10T11:30:09.665Z,32.13
2018-11-10T11:32:45.588Z,26.10
2018-11-10T11:35:21.415Z,29.13
2018-11-10T11:37:57.416Z,28.23
2018-11-10T11:40:33.202Z,26.97
2018-11-10T11:43:09.088Z,24.60
2018-11-10T11:45:44.994Z,27.70
2018-11-10T11:48:20.701Z,23.27
2018-11-10T11:50:56.696Z,29.40
2018-11-10T11:53:32.581Z,25.07
2018-11-10T11:56:08.515Z,22.70
2018-11-10T11:58:44.371Z,22.07
2018-11-10T12:01:20.586Z,34.97
2018-11-10T12:03:56.469Z,30.63
2018-11-10T12:06:32.470Z,22.87
2018-11-10T12:09:09.922Z,21.50
2018-11-10T12:11:45.748Z,19.90
2018-11-10T12:14:21.626Z,20.17
2018-11-10T12:16:57.543Z,19.37
2018-11-10T12:19:33.499Z,20.00
2018-11-10T12:22:12.222Z,23.47
2018-11-10T12:24:50.828Z,30.00
2018-11-10T12:27:26.610Z,34.47
2018-11-10T12:30:02.580Z,26.00
2018-11-10T12:32:39.166Z,20.30
2018-11-10T12:35:15.277Z,23.60
2018-11-10T12:37:51.007Z,29.93
2018-11-10T12:40:26.757Z,17.67
2018-11-10T12:43:02.516Z,17.67
2018-11-10T12:45:38.227Z,16.17
2018-11-10T12:48:14.094Z,24.40
2018-11-10T12:50:50.075Z,20.40
2018-11-10T12:53:25.802Z,33.10
2018-11-10T12:55:57.010Z,16.10
2018-11-10T12:58:28.393Z,17.80
2018-11-10T13:00:59.854Z,20.40
2018-11-10T13:03:30.947Z,13.67
2018-11-10T13:06:01.892Z,19.90
2018-11-10T13:08:32.773Z,18.13
2018-11-10T13:11:03.558Z,25.57
2018-11-10T13:13:34.337Z,29.50
2018-11-10T13:16:05.128Z,26.93
2018-11-10T13:18:36.103Z,44.07
2018-11-10T13:21:07.491Z,20.70
2018-11-10T13:23:38.315Z,14.97
2018-11-10T13:26:09.133Z,18.50
2018-11-10T13:28:40.016Z,18.80
2018-11-10T13:31:10.914Z,37.97
2018-11-10T13:33:41.958Z,21.83
2018-11-10T13:36:12.756Z,19.77
2018-11-10T13:38:43.594Z,22.07
2018-11-10T13:41:14.668Z,16.00
2018-11-10T13:43:45.604Z,29.33
2018-11-10T13:46:18.998Z,40.43
2018-11-10T13:48:50.726Z,28.00
2018-11-10T13:51:21.650Z,29.27
2018-11-10T13:53:52.583Z,34.70
2018-11-10T13:56:23.473Z,30.57
2018-11-10T13:58:54.332Z,33.07
2018-11-10T14:01:25.298Z,19.70
2018-11-10T14:03:56.625Z,26.87
2018-11-10T14:06:27.413Z,31.13
2018-11-10T14:08:58.271Z,34.77
2018-11-10T14:11:29.122Z,35.43
2018-11-10T14:13:59.942Z,30.47
2018-11-10T14:16:30.775Z,49.83
2018-11-10T14:19:01.713Z,49.33
2018-11-10T14:21:32.493Z,56.73
2018-11-10T14:24:03.358Z,75.77
2018-11-10T14:26:34.150Z,101.53
2018-11-10T14:29:05.451Z,82.53
2018-11-10T14:31:36.343Z,43.30
2018-11-10T14:34:07.315Z,45.50
2018-11-10T14:36:38.156Z,49.63
2018-11-10T14:39:10.819Z,48.17
2018-11-10T14:41:41.649Z,111.47
2018-11-10T14:44:12.575Z,83.23
2018-11-10T14:46:44.902Z,84.77
2018-11-10T14:49:16.168Z,52.43
2018-11-10T14:51:47.053Z,39.13
2018-11-10T14:54:17.921Z,32.17
2018-11-10T14:56:48.720Z,34.47
2018-11-10T14:59:20.097Z,100.57
2018-11-10T15:01:51.472Z,46.20
2018-11-10T15:04:22.448Z,52.17
2018-11-10T15:06:53.320Z,62.63
2018-11-10T15:09:24.666Z,55.20
2018-11-10T15:11:55.574Z,47.50
2018-11-10T15:14:32.277Z,53.80
2018-11-10T15:17:03.962Z,46.57
2018-11-10T15:19:35.132Z,41.73
2018-11-10T15:22:06.932Z,44.20
2018-11-10T15:24:37.883Z,36.63
2018-11-10T15:27:08.986Z,35.97
2018-11-10T15:29:40.160Z,39.20
2018-11-10T15:32:11.489Z,42.27
2018-11-10T15:34:42.710Z,41.57
2018-11-10T15:37:13.691Z,97.03
2018-11-10T15:39:45.217Z,107.17
2018-11-10T15:42:17.499Z,111.93
2018-11-10T15:44:48.354Z,127.87
2018-11-10T15:47:19.166Z,145.40
2018-11-10T15:49:50.313Z,142.23
2018-11-10T15:52:21.481Z,145.90
2018-11-10T15:54:52.635Z,138.67
2018-11-10T15:57:23.418Z,129.10
2018-11-10T15:59:54.541Z,134.77
2018-11-10T16:02:25.557Z,119.23
2018-11-10T16:04:56.548Z,114.33
2018-11-10T16:07:27.390Z,103.53
2018-11-10T16:10:03.094Z,100.97
2018-11-10T16:12:36.125Z,113.73
2018-11-10T16:15:09.653Z,127.13
2018-11-10T16:17:41.441Z,126.07
2018-11-10T16:20:21.251Z,130.70
2018-11-10T16:22:52.578Z,124.67
2018-11-10T16:25:23.983Z,103.33
2018-11-10T16:27:57.370Z,94.07
2018-11-10T16:30:28.921Z,89.67
2018-11-10T16:32:59.803Z,68.97
2018-11-10T16:35:30.948Z,92.10
2018-11-10T16:38:03.055Z,84.77
2018-11-10T16:40:34.788Z,122.53
2018-11-10T16:43:08.659Z,109.77
2018-11-10T16:45:39.492Z,162.60
2018-11-10T16:48:10.985Z,198.07
2018-11-10T16:50:41.848Z,273.47
2018-11-10T16:53:12.790Z,217.33
2018-11-10T16:55:43.847Z,131.00
2018-11-10T16:58:14.668Z,168.17
2018-11-10T17:00:45.527Z,166.97
2018-11-10T17:03:22.914Z,156.33
2018-11-10T17:05:54.081Z,166.57
2018-11-10T17:08:25.007Z,217.50
2018-11-10T17:10:56.355Z,151.80
2018-11-10T17:13:27.669Z,119.33
2018-11-10T17:15:58.727Z,100.83
2018-11-10T17:18:29.594Z,89.53
2018-11-10T17:21:00.577Z,91.87
2018-11-10T17:23:31.399Z,71.27
2018-11-10T17:26:02.340Z,59.20
2018-11-10T17:28:33.158Z,195.77
2018-11-10T17:31:04.129Z,122.03
2018-11-10T17:33:34.973Z,101.53
2018-11-10T17:36:06.621Z,80.43
2018-11-10T17:38:37.446Z,60.23
2018-11-10T17:41:08.305Z,78.10
2018-11-10T17:43:39.373Z,80.27
2018-11-10T17:46:10.228Z,95.23
2018-11-10T17:48:41.371Z,74.80
2018-11-10T17:51:12.280Z,133.73
2018-11-10T17:53:43.143Z,162.50
2018-11-10T17:56:14.991Z,177.03
2018-11-10T17:58:45.902Z,155.50
2018-11-10T18:01:17.026Z,173.30
2018-11-10T18:03:48.297Z,194.00
2018-11-10T18:06:19.415Z,189.67
2018-11-10T18:08:50.223Z,110.93
2018-11-10T18:11:21.064Z,202.63
2018-11-10T18:13:51.852Z,166.17
2018-11-10T18:16:22.715Z,161.97
2018-11-10T18:18:53.591Z,194.57
2018-11-10T18:21:24.726Z,184.60
2018-11-10T18:23:55.541Z,217.27
2018-11-10T18:26:26.421Z,286.47
2018-11-10T18:28:57.242Z,154.43
2018-11-10T18:31:28.150Z,177.93
2018-11-10T18:33:58.937Z,227.30
2018-11-10T18:36:30.087Z,127.03
2018-11-10T18:39:00.913Z,174.97
2018-11-10T18:41:31.809Z,277.30
2018-11-10T18:44:02.725Z,289.10
2018-11-10T18:46:33.615Z,254.87
2018-11-10T18:49:04.863Z,119.07
2018-11-10T18:51:35.806Z,116.47
2018-11-10T18:54:06.851Z,223.80
2018-11-10T18:56:37.731Z,179.27
2018-11-10T18:59:08.646Z,338.20
2018-11-10T19:01:39.568Z,320.53
2018-11-10T19:04:10.358Z,348.67
2018-11-10T19:06:41.240Z,360.67
2018-11-10T19:09:13.213Z,325.03
2018-11-10T19:11:44.044Z,538.77
2018-11-10T19:14:14.945Z,220.13
2018-11-10T19:16:45.863Z,475.40
2018-11-10T19:19:16.683Z,346.07
2018-11-10T19:21:47.800Z,393.23
2018-11-10T19:24:18.622Z,376.87
2018-11-10T19:28:13.796Z,234.63
2018-11-10T19:30:44.628Z,275.80
2018-11-10T19:33:15.550Z,285.50
2018-11-10T19:35:46.377Z,233.43
2018-11-10T19:38:17.304Z,316.93
2018-11-10T19:40:48.118Z,156.07
2018-11-10T19:43:18.953Z,219.83
2018-11-10T19:45:49.917Z,233.93
2018-11-10T19:48:20.772Z,312.83
2018-11-10T19:50:51.709Z,263.97
2018-11-10T19:53:22.766Z,159.80
2018-11-10T19:55:53.567Z,112.67
2018-11-10T19:58:24.364Z,134.60
2018-11-10T20:00:55.228Z,111.17
2018-11-10T20:03:26.342Z,98.07
2018-11-10T20:05:57.190Z,141.43
2018-11-10T20:08:28.059Z,139.93
2018-11-10T20:10:58.898Z,183.87
2018-11-10T20:13:29.745Z,121.80
2018-11-10T20:16:00.531Z,75.77
2018-11-10T20:18:31.335Z,94.00
2018-11-10T20:21:02.109Z,127.77
2018-11-10T20:23:33.174Z,108.17
2018-11-10T20:26:04.003Z,103.37
2018-11-10T20:28:34.823Z,100.93
2018-11-10T20:31:05.711Z,85.13
2018-11-10T20:33:36.573Z,89.00
2018-11-10T20:36:07.419Z,92.63
2018-11-10T20:38:41.247Z,132.77
2018-11-10T20:41:12.317Z,137.43
2018-11-10T20:43:43.188Z,100.33
2018-11-10T20:46:14.057Z,86.90
2018-11-10T20:48:44.923Z,89.67
2018-11-10T20:51:15.753Z,110.67
2018-11-10T20:53:46.832Z,131.03
2018-11-10T20:56:17.668Z,91.20
2018-11-10T20:58:53.388Z,91.33
2018-11-10T21:01:29.333Z,69.43
2018-11-10T21:04:05.424Z,70.47
2018-11-10T21:06:41.928Z,85.27
2018-11-10T21:09:17.945Z,79.03
2018-11-10T21:11:54.348Z,156.53
2018-11-10T21:14:30.193Z,118.93
2018-11-10T21:17:06.430Z,129.57
2018-11-10T21:19:42.458Z,105.77
2018-11-10T21:22:18.379Z,107.37
2018-11-10T21:24:54.396Z,118.83
2018-11-10T21:27:30.266Z,94.10
2018-11-10T21:30:07.882Z,146.03
2018-11-10T21:32:44.484Z,85.00
2018-11-10T21:35:20.502Z,80.03
2018-11-10T21:37:56.442Z,65.30
2018-11-10T21:40:32.288Z,207.63
2018-11-10T21:43:08.122Z,153.27
2018-11-10T21:45:44.016Z,72.67
2018-11-10T21:48:19.849Z,91.20
2018-11-10T21:50:55.794Z,78.73
2018-11-10T21:53:31.529Z,80.17
2018-11-10T21:56:07.475Z,67.43
2018-11-10T21:58:43.753Z,75.17
2018-11-10T22:01:19.509Z,66.07
2018-11-10T22:03:55.221Z,93.20
2018-11-10T22:06:30.990Z,137.93
2018-11-10T22:09:09.480Z,107.43
2018-11-10T22:11:45.516Z,90.63
2018-11-10T22:14:21.437Z,114.87
2018-11-10T22:16:57.204Z,109.83
2018-11-10T22:19:32.990Z,110.13
2018-11-10T22:22:08.899Z,100.47
2018-11-10T22:24:44.638Z,97.43
2018-11-10T22:27:20.605Z,75.63
2018-11-10T22:29:56.483Z,110.50
2018-11-10T22:32:32.504Z,94.93
2018-11-10T22:35:08.871Z,86.37
2018-11-10T22:37:44.833Z,90.57
2018-11-10T22:40:21.784Z,98.53
2018-11-10T22:42:57.783Z,115.07
2018-11-10T22:45:33.590Z,110.73
2018-11-10T22:48:09.417Z,98.40
2018-11-10T22:50:45.505Z,92.60
2018-11-10T22:53:21.795Z,176.47
2018-11-10T22:55:57.505Z,159.63
2018-11-10T22:58:33.777Z,138.60
2018-11-10T23:01:10.598Z,133.53
2018-11-10T23:03:49.119Z,134.93
2018-11-10T23:06:27.672Z,119.23
2018-11-10T23:09:04.519Z,81.27
2018-11-10T23:11:40.395Z,65.50
2018-11-10T23:14:16.373Z,62.57
2018-11-10T23:16:52.180Z,64.30
2018-11-10T23:19:28.418Z,74.23
2018-11-10T23:22:04.200Z,68.17
2018-11-10T23:24:40.165Z,84.57
2018-11-10T23:27:15.929Z,90.77
2018-11-10T23:29:51.864Z,114.50
2018-11-10T23:32:27.695Z,86.40
2018-11-10T23:35:03.574Z,81.93
2018-11-10T23:37:39.457Z,82.30
2018-11-10T23:40:16.254Z,64.17
2018-11-10T23:42:52.149Z,46.63
2018-11-10T23:45:28.812Z,49.90
2018-11-10T23:48:05.362Z,57.83
2018-11-10T23:50:41.144Z,59.60
2018-11-10T23:53:17.098Z,54.97
2018-11-10T23:55:52.984Z,70.97
2018-11-10T23:58:30.436Z,83.33
